x

8452944 - Conimicut Light, Ri (cptr1) Weather Station

1:54 - Mon 27th Jun 2016 All times are EDT. -4 hours from GMT.

  • Wind
    26mph, 29mph gusts
  • Sea Temp 71°f
  • Aire Temp 71°f
  • Sea Pressure 1018.4mb
  • 8452944 - Conimicut Light, Ri
  • 8452944 - Conimicut Light, Ri

More Historic Weather Station data

Upgrade to MSW Pro to gain access to the past 30 days of data for over 8000 Wavebouys and Weather Stations around the globe.

Join Pro

Comparision Forecast

View Surf forecast
   
lun 06/27 1:54 26 29 mph 1018.4mb 71f 71f
1:48 24 26 mph 1018.5mb 71f 71f
1:42 24 26 mph 1018.6mb 71f 71f
1:36 23 25 mph 1018.7mb 71f 71f
1:30 23 25 mph 1018.7mb 71f 71f
1:24 22 24 mph 1018.8mb 71f 71f
1:18 24 25 mph 1018.9mb 71f 71f
1:12 20 23 mph 1019mb 71f 71f
1:06 20 23 mph 1019mb 71f 71f
1:00 21 24 mph 1019.1mb 71f 71f
12:54 21 24 mph 1019.2mb 71f 71f
12:48 22 25 mph 1019.2mb 71f 71f
12:42 18 22 mph 1019.3mb 71f 71f
12:36 21 23 mph 1019.3mb 71f 70f
12:30 22 24 mph 1019.3mb 71f 70f
12:24 22 24 mph 1019.4mb 71f 70f
12:18 21 23 mph 1019.5mb 71f 70f
12:12 20 23 mph 1019.6mb 71f 70f
12:06 21 23 mph 1019.6mb 71f 70f
12:00 22 24 mph 1019.6mb 71f 70f
11:54 24 25 mph 1019.6mb 71f 69f
11:48 23 26 mph 1019.6mb 71f 70f
11:42 25 26 mph 1019.6mb 71f 69f
11:36 25 26 mph 1019.6mb 71f 70f
11:30 22 23 mph 1019.7mb 70f 70f
11:24 22 25 mph 1019.7mb 70f 70f
11:18 23 28 mph 1019.6mb 70f 70f
11:12 25 28 mph 1019.7mb 70f 69f
11:06 24 26 mph 1019.7mb 70f 69f
11:00 21 23 mph 1019.6mb 70f 69f
10:54 17 20 mph 1019.7mb 70f 70f
10:48 15 16 mph 1019.7mb 70f 71f
10:42 14 16 mph 1019.7mb 70f 71f
10:36 13 15 mph 1019.8mb 70f 70f
10:30 14 17 mph 1019.9mb 70f 70f
10:24 14 16 mph 1020mb 70f 70f
10:18 15 16 mph 1020mb 70f 70f
10:12 15 18 mph 1020.1mb 71f 69f
10:06 15 16 mph 1020.1mb 71f 69f
10:00 14 15 mph 1020.2mb 71f 69f
9:54 10 14 mph 1020.2mb 71f 69f
9:48 13 16 mph 1020.2mb 71f 69f
9:42 15 17 mph 1020.2mb 71f 69f
9:36 15 16 mph 1020.3mb 71f 69f
9:30 14 15 mph 1020.5mb 71f 69f
9:24 14 15 mph 1020.5mb 70f 69f
9:18 11 14 mph 1020.6mb 70f 69f
9:12 13 14 mph 1020.7mb 70f 69f
9:06 13 14 mph 1020.7mb 70f 68f
9:00 13 14 mph 1020.7mb 70f 68f
8:54 11 13 mph 1020.8mb 70f 68f
8:48 11 13 mph 1020.8mb 70f 68f
8:42 11 13 mph 1020.8mb 70f 68f
8:36 11 13 mph 1020.9mb 70f 67f
8:30 11 13 mph 1020.9mb 70f 67f
8:24 11 14 mph 1020.9mb 70f 67f
8:18 13 14 mph 1020.8mb 70f 67f
8:12 13 14 mph 1020.9mb 70f 67f
8:06 14 15 mph 1020.9mb 70f 66f
8:00 14 16 mph 1020.9mb 70f 66f
7:54 14 16 mph 1021mb 70f 66f
7:48 15 17 mph 1021mb 70f 66f
7:42 15 17 mph 1021mb 70f 66f
7:36 15 18 mph 1020.9mb 70f 66f
7:30 16 17 mph 1021mb 70f 66f
7:24 16 20 mph 1021mb 70f 66f
7:18 16 20 mph 1021.1mb 70f 66f
7:12 14 16 mph 1021.2mb 70f 66f
7:06 14 16 mph 1021.2mb 70f 65f
7:00 14 17 mph 1021.3mb 70f 66f
6:54 15 17 mph 1021.3mb 70f 65f
6:48 15 17 mph 1021.2mb 70f 65f
6:42 15 17 mph 1021.2mb 70f 65f
6:36 14 16 mph 1021.2mb 70f 65f
6:30 14 16 mph 1021.2mb 70f 65f
6:24 13 15 mph 1021.1mb 70f 65f
6:18 13 15 mph 1021.2mb 70f 65f
6:12 13 17 mph 1021.2mb 70f 65f
6:06 15 18 mph 1021.2mb 70f 65f
6:00 16 18 mph 1021.1mb 70f 65f
5:54 16 17 mph 1021mb 70f 65f
5:48 15 17 mph 1021mb 70f 64f
5:42 14 15 mph 1021mb 70f 64f
5:36 14 15 mph 1021mb 70f 65f
5:30 14 15 mph 1020.9mb 70f 64f
5:24 11 13 mph 1020.9mb 70f 64f
5:18 13 14 mph 1020.9mb 70f 64f
5:12 11 16 mph 1020.8mb 70f 64f
5:06 14 15 mph 1020.9mb 70f 64f
5:00 14 16 mph 1020.9mb 69f 64f
4:54 13 14 mph 1020.9mb 69f 64f
4:48 13 16 mph 1020.9mb 69f 64f
4:42 13 15 mph 1020.9mb 69f 64f
4:36 13 17 mph 1021mb 69f 64f
4:30 13 15 mph 1021mb 69f 64f
4:24 13 15 mph 1021mb 70f 64f
4:18 14 16 mph 1020.9mb 70f 64f
4:12 16 18 mph 1020.9mb 70f 65f
4:06 17 20 mph 1020.8mb 70f 64f
4:00 17 20 mph 1020.8mb 70f 64f
3:54 17 18 mph 1020.7mb 70f 65f
3:48 16 18 mph 1020.8mb 70f 65f
3:42 15 18 mph 1020.9mb 70f 65f
3:36 16 18 mph 1020.9mb 70f 65f
3:30 15 17 mph 1020.9mb 70f 65f
3:24 15 17 mph 1020.9mb 70f 65f
3:18 17 18 mph 1020.9mb 70f 65f
3:12 16 17 mph 1020.9mb 70f 65f
3:06 15 17 mph 1020.9mb 70f 64f
3:00 14 16 mph 1020.9mb 70f 64f
2:54 14 15 mph 1020.9mb 70f 64f
2:48 13 15 mph 1021mb 70f -
2:42 11 14 mph 1020.9mb 70f -
2:36 10 11 mph 1020.9mb 70f -
2:30 10 11 mph 1020.9mb 70f 64f
2:24 9 10 mph 1021mb 70f 64f
2:18 9 10 mph 1021mb 70f 64f
2:12 8 10 mph 1021mb 70f 64f
2:06 8 10 mph 1021mb 70f 64f
2:00 9 11 mph 1021mb 70f 64f
1:54 10 13 mph 1020.9mb 70f 64f
1:48 10 11 mph 1020.9mb - -
1:42 10 11 mph 1020.9mb - -
1:36 10 11 mph 1021mb - -
1:30 10 11 mph 1021.1mb 70f 63f
1:24 10 11 mph 1021.1mb 70f 63f
1:18 11 14 mph 1021.1mb 70f 64f
1:12 11 13 mph 1021.2mb 70f 64f
1:06 11 13 mph 1021.1mb 70f 64f
1:00 9 11 mph 1021.2mb 71f 64f
12:54 8 9 mph 1021.2mb 71f 64f
12:48 8 11 mph 1021.2mb 71f 64f
12:42 9 11 mph 1021.2mb 71f 64f
12:36 8 9 mph 1021.2mb 71f 64f
12:30 9 11 mph 1021.3mb 71f 64f
12:24 10 11 mph 1021.3mb 71f 64f
12:18 11 13 mph 1021.4mb 71f 64f
12:12 10 13 mph 1021.3mb 71f 64f
12:06 10 13 mph 1021.4mb 71f 65f
12:00 10 13 mph 1021.4mb 71f 65f
dom 06/26 11:54 9 13 mph 1021.3mb 71f 65f
11:48 11 13 mph 1021.4mb 71f 65f
11:42 10 11 mph 1021.4mb 71f 65f
11:36 10 14 mph 1021.4mb 71f 65f
11:30 13 15 mph 1021.3mb 71f 66f
11:24 14 17 mph 1021.3mb 71f 66f
11:18 15 17 mph 1021.4mb 71f 66f
11:12 16 17 mph 1021.3mb 71f 66f
11:06 15 17 mph 1021.2mb 71f 66f
11:00  -  mph 1021.1mb 71f -
10:54  -  mph 1021.2mb 71f -
10:48  -  mph - 71f -
10:42  -  mph - 71f -
10:36  -  mph - 71f -
10:30  -  mph 1021.3mb 71f -
10:24  -  mph 1021.4mb 71f -
10:18  -  mph 1021.4mb 71f 66f
10:12  -  mph 1021.5mb 71f 66f
10:06  -  mph 1021.5mb 71f 66f
10:00  -  mph - 71f -
9:54  -  mph - 71f -
9:48  -  mph - 71f -
9:42  -  mph - 71f -
9:36  -  mph - 71f -
9:30  -  mph 1021.4mb 71f -
9:24  -  mph 1021.4mb 71f -
9:18  -  mph 1021.5mb 71f -
9:12  -  mph 1021.4mb 71f -
9:06  -  mph 1021.4mb 71f -
9:00  -  mph 1021.4mb 71f -
8:54  -  mph 1021.3mb 71f -
8:48  -  mph - 71f -
8:42  -  mph - 71f -
8:36  -  mph - 71f -
8:30  -  mph - 71f -
8:24  -  mph - 70f -
8:18  -  mph 1021.5mb 70f 69f
8:12  -  mph 1021.6mb 70f 69f
8:06  -  mph 1021.6mb 70f 69f
8:00  -  mph - 70f -
7:54  -  mph - 70f -
7:48  -  mph - 71f -
7:42  -  mph - 71f -
7:36  -  mph - 71f -
7:30 16 18 mph 1021.9mb - -
7:24 17
mph
1022mb - -
7:18  -  mph 1022mb 71f 70f
7:12  -  mph 1022mb 71f 70f
7:06  -  mph 1022mb 70f 70f
7:00 18 20 mph 1022mb 70f -
6:54 18 20 mph 1022mb 70f -
6:48  -  mph - 70f -
6:42  -  mph - 70f -
6:36  -  mph - 70f -
6:30  -  mph - 70f -
6:24  -  mph - 70f -
6:18  -  mph 1022.2mb 70f 70f
6:12  -  mph 1022.3mb 70f 70f
6:06  -  mph 1022.3mb 70f 70f
6:00  -  mph 1022.3mb 70f -
5:54  -  mph 1022.4mb 70f -
5:48  -  mph 1022.4mb 70f -
5:42  -  mph 1022.4mb 70f -
5:36  -  mph 1022.4mb 70f -
5:30 21 23 mph 1022.5mb 70f 70f
5:24 21 23 mph 1022.5mb 70f 70f
5:18 22 24 mph 1022.5mb 70f 70f
5:12 22 23 mph 1022.6mb 70f 70f
5:06 22 23 mph 1022.6mb 70f 70f
5:00 22 23 mph 1022.7mb 70f 70f
4:54 22 24 mph 1022.7mb 70f 70f
4:48 22 24 mph 1022.8mb 70f 70f
4:42 22 24 mph 1022.7mb 70f 69f
4:36 22 24 mph 1022.7mb 70f 69f
4:30 21 23 mph 1022.8mb 70f 69f
4:24 21 24 mph 1022.9mb 70f 69f
4:18 22 23 mph 1022.9mb 70f 69f
4:12 22 24 mph 1023mb 70f 69f
4:06 21 24 mph 1023mb 70f 69f
4:00 23 25 mph 1023mb 70f 69f
3:54 22 25 mph 1022.9mb 70f 69f
3:48 23 25 mph 1023mb 70f 69f
3:42 23 25 mph 1023mb 70f 69f
3:36 23 25 mph 1023.1mb 70f 69f
3:30 24 25 mph 1023.1mb 70f 69f
3:24 22 24 mph 1023.2mb 71f 69f
3:18 22 24 mph 1023.2mb 71f 69f
3:12 23 24 mph 1023.3mb 71f 69f
3:06 23 24 mph 1023.4mb 71f 69f
3:00 22 24 mph 1023.4mb 71f 69f
2:54 22 24 mph 1023.4mb 71f 69f
2:48 23 24 mph 1023.5mb 71f 69f
2:42 22 24 mph 1023.5mb 71f 69f
2:36 22 23 mph 1023.5mb 71f 69f
2:30 22 23 mph 1023.5mb 71f 69f
2:24 21 22 mph 1023.5mb 71f 69f
2:18 21 23 mph 1023.6mb 71f 69f
2:12 22 23 mph 1023.6mb 71f 69f
2:06 20 21 mph 1023.6mb 71f 69f
2:00 18 20 mph 1023.6mb 71f 69f
1:54 18 22 mph 1023.7mb 71f 69f
1:48 20 22 mph 1023.7mb 71f 68f
1:42 20 21 mph 1023.8mb 71f 68f
1:36 18 21 mph 1023.7mb 71f 70f
1:30 20 21 mph 1023.8mb 71f 69f
1:24 20 22 mph 1023.8mb 71f 69f
1:18 21 22 mph 1023.8mb 71f 70f
1:12 21 22 mph 1023.7mb 71f 70f
1:06 18 20 mph 1023.8mb 71f 69f
1:00 18 21 mph 1023.7mb 71f 69f
12:54 17 21 mph 1023.7mb 71f 69f
12:48 20 21 mph 1023.7mb 71f 69f
12:42 18 21 mph 1023.7mb 71f 69f
12:36 18 21 mph 1023.7mb 71f 69f
12:30 16 17 mph 1024mb 71f 70f
12:24 16 18 mph 1024mb 71f 70f
12:18 15 16 mph 1023.9mb 71f 71f
12:12 15 16 mph 1023.9mb 71f 71f
12:06 15
mph
1023.9mb 71f 71f
12:00 14
mph
1023.9mb 71f 71f
11:54 13 14 mph 1024mb 71f 71f
11:48 14
mph
1024.1mb 71f 71f
11:42 13
mph
1024.2mb 70f 71f
11:36 11 13 mph 1024.3mb 70f 71f
11:30 11 13 mph 1024.3mb 70f 71f
11:24 10 11 mph 1024.2mb 70f 70f
11:18 11
mph
1024.2mb 70f 70f
11:12 11
mph
1024.2mb 70f 69f
11:06 10 11 mph 1024.3mb 70f 70f
11:00 9
mph
1024.2mb 70f 69f
10:54 9 10 mph 1024.3mb 69f 69f
10:48 8 9 mph 1024.3mb 69f 69f
10:42 8 9 mph 1024.3mb 69f 69f
10:36 8 10 mph 1024.1mb 69f 69f
10:30 9 10 mph 1024.1mb 69f 68f
10:24 8 9 mph 1024.2mb 69f 69f
10:18 8 9 mph 1024.2mb 69f 68f
10:12 9
mph
1024.3mb 69f 68f
10:06 8 9 mph 1024.3mb 70f 67f
10:00 7 8 mph 1024.4mb 70f 67f
9:54 6 7 mph 1024.5mb 70f 67f
9:48 5 6 mph 1024.7mb 70f 67f
9:42 5 6 mph 1024.7mb 71f 66f
9:36 6
mph
1024.8mb 71f 66f
9:30 3 6 mph 1024.8mb 71f 66f
9:24 6 7 mph 1024.8mb 71f 66f
9:18 6 7 mph 1024.8mb 71f 66f
9:12 6 8 mph 1024.8mb 71f 65f
9:06 6 8 mph 1024.9mb 71f 65f
9:00 7 8 mph 1024.9mb 71f 65f
8:54 6 9 mph 1024.9mb 71f 65f
8:48 7
mph
1024.9mb 71f 65f
8:42 6 8 mph 1025mb 70f 65f
8:36 6 8 mph 1024.9mb 70f 65f
8:30 7 8 mph 1024.8mb 70f 65f
8:24 6 7 mph 1024.7mb 70f 65f
8:18 6 8 mph 1024.7mb 70f 65f
8:12 6 7 mph 1024.7mb 70f 65f
8:06 6
mph
1024.7mb 70f 65f
8:00 6 8 mph 1024.6mb 70f 64f
7:54 7 8 mph 1024.5mb 70f 64f
7:48 7
mph
1024.6mb 70f 64f
7:42 6 7 mph 1024.5mb 70f 64f
7:36 7
mph
1024.5mb 70f 64f
7:30 7
mph
1024.4mb 70f 63f
7:24 6 7 mph 1024.4mb 70f 63f
7:18 6
mph
1024.3mb 70f 63f
7:12 6
mph
1024.4mb 70f 63f
7:06 5 6 mph 1024.4mb 70f 63f
7:00 5
mph
1024.3mb 70f 62f
6:54 5
mph
1024.2mb 71f 62f
6:48 5
mph
1024.1mb 71f 62f
6:42 3 5 mph 1024.1mb 71f 62f
6:36 3
mph
1024.1mb 71f 62f
6:30 2 3 mph 1024mb 71f 62f
6:24 3
mph
1024mb 71f 61f
6:18 3
mph
1024.1mb 71f 61f
6:12 2 3 mph 1024.1mb 71f 61f
6:06 3
mph
1024.2mb 71f 61f
6:00 2 3 mph 1024.3mb 71f 60f
5:54 3
mph
1024.3mb 71f 61f
5:48 3
mph
1024.5mb 71f 61f
5:42 1 2 mph 1024.5mb 71f 61f
5:36 1 2 mph 1024.5mb 71f 61f
5:30 1 2 mph 1024.6mb 71f 61f
5:24 1 2 mph 1024.6mb 71f 61f
5:18 2 3 mph 1024.6mb 71f 61f
5:12 3 5 mph 1024.7mb 71f 61f
5:06 5 6 mph 1024.6mb 71f 61f
5:00 5 6 mph 1024.6mb 71f 61f
4:54 5 6 mph 1024.6mb 71f 61f
4:48 3 5 mph 1024.6mb 71f 61f
4:42 5 6 mph 1024.6mb 71f 60f
4:36 3 5 mph 1024.7mb 71f 61f
4:30 3 5 mph 1024.7mb 70f 60f
4:24 5
mph
1024.7mb 70f 61f
4:18 3 5 mph 1024.7mb 70f 61f
4:12 5 6 mph 1024.7mb 70f 61f
4:06 6 7 mph 1024.6mb 70f 61f
4:00 6 7 mph 1024.6mb 70f 61f
3:54 6 8 mph 1024.6mb 70f 61f
3:48 7 8 mph 1024.5mb 70f 61f
3:42 6
mph
1024.4mb 70f 62f
3:36 5 6 mph 1024.4mb 71f 62f
3:30 5 6 mph 1024.5mb 71f -
3:24 6
mph
1024.5mb 71f -
3:18 5 6 mph 1024.4mb 71f 62f
3:12 6
mph
1024.4mb 71f 62f
3:06 5 7 mph 1024.3mb 71f 62f
3:00 6 8 mph 1024.2mb 71f 62f
2:54 6 7 mph 1024.2mb 71f 62f
2:48 6 7 mph 1024.1mb 71f -
2:42 6 7 mph 1024mb 71f -
2:36 6 7 mph 1023.9mb 71f -
2:30 6 7 mph 1023.9mb 70f 63f
2:24 6 7 mph 1023.9mb 70f 63f
2:18 6 7 mph 1024mb 70f 63f
2:12 6
mph
1023.9mb 70f 63f
2:06 5 6 mph 1023.9mb 70f 62f
2:00  -  mph 1023.9mb 70f 62f
1:54  -  mph 1023.9mb 70f 62f
1:48  -  mph 1023.8mb 70f 62f
1:42  -  mph 1023.7mb 70f 62f
1:36  -  mph 1023.8mb 70f 63f
1:30 6 7 mph 1023.8mb 70f 63f
1:24 6 7 mph 1023.8mb 70f 63f
1:18 8
mph
1023.7mb 69f 63f
1:12 7 8 mph 1023.8mb 69f 63f
1:06 7 8 mph 1023.8mb 69f 63f
1:00 7 8 mph 1023.8mb 69f 63f
12:54 7 8 mph 1023.9mb 69f 63f
12:48 7 9 mph 1023.8mb 69f 63f
12:42 7 8 mph 1023.8mb 69f 63f
12:36 7 9 mph 1023.9mb 69f 63f
12:30 7 8 mph 1023.8mb 69f 63f
12:24 8
mph
1023.8mb 69f 63f
12:18 7 8 mph 1023.9mb 69f 63f
12:12 8
mph
1024mb 69f 64f
12:06 7 8 mph 1024mb 69f 64f
12:00 7 8 mph 1023.9mb 69f 64f
sáb 06/25 11:54 8 9 mph 1023.9mb 69f 64f
11:48  -  mph 1023.8mb 69f 64f
11:42  -  mph 1023.9mb 69f 64f
11:36  -  mph 1024.1mb 68f 64f
11:30 8 9 mph 1024.1mb 68f 64f
11:24 7 9 mph 1024mb 68f 64f
11:18 8 9 mph 1024mb 67f 64f
11:12 8 9 mph 1024.1mb 67f 64f
11:06 7 8 mph 1024.1mb 67f 65f
11:00  -  mph 1024.1mb 68f 65f
10:54  -  mph 1024mb 68f 65f
10:48  -  mph 1024mb 68f -
10:42  -  mph 1024.1mb 68f -
10:24  -  mph 1024.2mb 69f 65f
10:18  -  mph - 69f 65f
10:12  -  mph - 69f 65f
10:06  -  mph - 69f 65f
10:00  -  mph 1024.4mb 69f 65f
9:54  -  mph 1024.4mb 69f 65f
9:48  -  mph - 69f -
9:42  -  mph - 69f -
9:36  -  mph - 69f -
9:30  -  mph 1024.3mb 69f -
9:24  -  mph 1024.3mb 69f -
9:18  -  mph 1024.3mb 70f 66f
9:12  -  mph 1024.2mb 70f 66f
9:06  -  mph 1024mb 71f 66f
9:00  -  mph 1023.8mb 71f -
8:54  -  mph 1023.7mb 71f -
8:48  -  mph 1023.5mb 71f -
8:42  -  mph 1023.4mb 71f -
8:36  -  mph 1023.4mb 71f -
8:30 14 16 mph - - -
8:24 15 16 mph - - -
8:18  -  mph 1023.4mb 72f 67f
8:12  -  mph 1023.4mb 72f 67f
8:06  -  mph 1023.3mb 72f 67f
8:00  -  mph - 72f -
7:54  -  mph - 71f -
7:48  -  mph - 71f -
7:42  -  mph - 71f -
7:36  -  mph - 71f -
7:30  -  mph 1023mb 70f -
7:24  -  mph 1023mb 70f -
7:18  -  mph 1022.9mb 69f 68f
7:12  -  mph 1022.9mb 67f 69f
7:06  -  mph 1022.9mb 67f 69f
7:00  -  mph 1022.8mb 68f -
6:54  -  mph 1022.8mb 68f -
6:48  -  mph - 69f -
6:42  -  mph - 69f -
6:36  -  mph - 70f -
6:30  -  mph 1022.8mb 70f -
6:24  -  mph 1022.8mb 70f -
6:18  -  mph 1022.7mb 70f 69f
6:12  -  mph 1022.7mb 70f 70f
6:06  -  mph 1022.6mb 71f 71f
6:00  -  mph - 71f -
5:54  -  mph - 71f -
5:48  -  mph 1022.5mb 71f -
5:42  -  mph 1022.4mb 71f -
5:36  -  mph 1022.5mb 71f -
5:30 14 15 mph 1022.6mb 71f 71f
5:24 14 15 mph 1022.6mb 71f 72f
5:18 14 15 mph 1022.5mb 71f 72f
5:12 14 15 mph 1022.4mb 71f 72f
5:06 14 15 mph 1022.5mb 71f 72f
5:00 14 15 mph 1022.4mb 71f 72f
4:54 14 15 mph 1022.3mb 71f 72f
4:48 14 15 mph 1022.4mb 71f 72f
4:42 15
mph
1022.4mb 71f 72f
4:36 14 15 mph 1022.5mb 71f 72f
4:30 14 15 mph 1022.5mb 71f 72f
4:24 14 15 mph 1022.4mb 71f 72f
4:18 14 16 mph 1022.4mb 71f 72f
4:12 14 15 mph 1022.4mb 71f 72f
4:06 14 16 mph 1022.4mb 71f 72f
4:00 14 16 mph 1022.4mb 71f 72f
3:54 15 16 mph 1022.4mb 72f 72f
3:48 15
mph
1022.3mb 72f 72f
3:42 14 16 mph 1022.4mb 72f 72f
3:36 16 18 mph 1022.3mb 72f 72f
3:30 17 18 mph 1022.3mb 72f 72f
3:24 16 18 mph 1022.3mb 72f 72f
3:18 17 18 mph 1022.3mb 72f 72f
3:12 17 18 mph 1022.4mb 72f 72f
3:06 17 18 mph 1022.5mb 72f 72f
3:00 16 17 mph 1022.5mb 72f 72f
2:54 15 16 mph 1022.7mb 72f 72f
2:48 16 17 mph 1022.7mb 72f 72f
2:42 16
mph
1022.8mb 72f 72f
2:36 15 16 mph 1022.8mb 72f 72f
2:30 16 17 mph 1022.8mb 72f 72f
2:24 15 16 mph 1022.7mb 72f 72f
2:18 14 15 mph 1022.8mb 72f 72f
2:12 13 14 mph 1022.8mb 72f 73f
2:06 13 14 mph 1022.8mb 72f 73f
2:00 11 13 mph - 72f 73f
1:54 10 14 mph - 72f 73f
1:48 9 11 mph 1023mb 72f 73f
1:42 8 9 mph 1023.1mb 72f 73f
1:36 8
mph
1023.1mb 72f 74f
1:30 8
mph
1023.1mb 72f 74f
1:24 7 8 mph 1023mb 72f 74f
1:18 7 8 mph 1023mb 72f 74f
1:12 8 9 mph 1023mb 72f 74f
1:06 8
mph
1023mb 71f 73f
1:00  -  mph 1023mb 71f 73f
12:54  -  mph 1023mb 71f 73f
12:48 8
mph
1023.1mb 71f 73f
12:42 8
mph
1023.1mb 71f 73f
12:36 7 8 mph 1023.2mb 71f 73f
12:30 7 8 mph 1023.2mb 71f 73f
12:24 7 8 mph 1023.2mb 70f 72f
12:18 8 9 mph 1023.2mb 70f 72f
12:12 8
mph
1023.2mb 69f 72f
12:06 7
mph
1023.2mb 69f 72f
12:00 6 7 mph 1023.2mb 68f 72f
11:54 6
mph
1023.3mb 68f 72f
11:48 6
mph
1023.3mb 69f 71f
11:42 5 6 mph 1023.4mb 69f 71f
11:36 5 6 mph 1023.6mb 70f 71f
11:30 5 6 mph 1023.6mb 70f 71f
11:24 6
mph
1023.7mb 70f 71f
11:18 6
mph
1023.7mb 70f 70f
11:12 6 7 mph 1023.7mb 70f 70f
11:06 5 6 mph 1023.7mb 70f 70f
11:00 5 6 mph 1023.7mb 70f 70f
10:54 6
mph
1023.7mb 70f 69f
10:48 5
mph
1023.7mb 70f 69f
10:42 3 5 mph 1023.8mb 70f 70f
10:36 2 3 mph 1023.8mb 70f 69f
10:30 2 3 mph 1023.7mb 70f 69f
10:24 2 3 mph 1023.7mb 70f 69f
10:18 2 3 mph 1023.7mb 70f 69f
10:12 2
mph
1023.7mb 70f 69f
10:06 2
mph
1023.7mb 70f 68f
10:00 1 2 mph 1023.7mb 69f 68f
9:54 1 2 mph 1023.7mb 70f 68f
9:48 2 3 mph 1023.7mb 70f 67f
9:42 3 5 mph 1023.8mb 70f 67f
9:36 3
mph
1023.7mb 70f 67f
9:30 2 3 mph 1023.7mb 70f 67f
9:24 2 3 mph 1023.8mb 71f 67f
9:18 3
mph
1023.7mb 71f 67f
9:12 2 3 mph 1023.7mb 71f 67f
9:06 2 3 mph 1023.7mb 71f 67f
9:00 2 3 mph 1023.6mb 71f 68f
8:54 1 3 mph 1023.6mb 71f 68f
8:48 2 3 mph 1023.6mb 71f 68f
8:42 3 6 mph 1023.6mb 71f 67f
8:36 6
mph
1023.5mb 71f 67f
8:30 5 6 mph 1023.5mb 71f 67f
8:24 6
mph
1023.5mb 71f 67f
8:18 6
mph
1023.6mb 71f 66f
8:12 5 6 mph 1023.6mb 71f 66f
8:06 6
mph
1023.6mb 71f 66f
8:00 5 6 mph 1023.6mb 71f 66f
7:54 5 6 mph 1023.6mb 71f 65f
7:48 3 5 mph 1023.6mb 71f 65f
7:42 3 5 mph 1023.6mb 71f 64f
7:36 1 2 mph 1023.6mb 71f 63f
7:30 2 3 mph 1023.6mb 71f 64f
7:24 1 2 mph 1023.5mb 71f 63f
7:18 1 3 mph 1023.5mb 71f 63f
7:12 2 3 mph 1023.4mb 71f 63f
7:06 2 5 mph 1023.4mb 71f 62f
7:00 3 5 mph 1023.3mb 71f 62f
6:54 3 5 mph 1023.3mb 71f 62f
6:48 3 6 mph 1023.3mb 71f 62f
6:42 5 6 mph 1023.2mb 71f 62f
6:36 5 6 mph 1023.2mb 71f 61f
6:30 6 7 mph 1023.1mb 71f 61f
6:24 6 7 mph 1023.1mb 71f 61f
6:18 7 8 mph 1023mb 71f 60f
6:12 7 8 mph 1023mb 71f 61f
6:06 7 9 mph 1022.9mb 71f 60f
6:00 8 9 mph 1022.8mb 71f 60f
5:54 5 6 mph 1022.7mb 71f 60f
5:48 5 6 mph 1022.6mb 71f 60f
5:42 5
mph
1022.6mb 71f 60f
5:36 5 6 mph 1022.5mb 71f 61f
5:30 6 7 mph 1022.4mb 71f 60f
5:24 6 7 mph 1022.3mb 71f 61f
5:18 6 7 mph 1022.3mb 71f 61f
5:12 7
mph
1022.2mb 71f 61f
5:06 7 8 mph 1022.2mb 71f 61f
5:00 7 8 mph 1022.2mb 71f 61f
4:54 8
mph
1022.2mb 71f 62f
4:48 8
mph
1022.1mb 71f 62f
4:42 7 8 mph 1022mb 71f 62f
4:36 8 9 mph 1021.9mb 71f 62f
4:30 7 8 mph 1021.9mb 71f 62f
4:24 7 8 mph 1021.9mb 71f 62f
4:18 7 8 mph 1021.9mb 71f 62f
4:12 7 9 mph 1021.8mb 71f 62f
4:06 7 9 mph 1021.9mb 71f 62f
4:00 8 9 mph 1021.8mb 71f 63f
3:54 7 8 mph 1021.7mb 71f 63f
3:48 7 8 mph 1021.7mb 70f 63f
3:42 7 8 mph 1021.6mb 70f 63f
3:36 6
mph
1021.7mb 71f 63f
3:30 6
mph
1021.7mb 71f 64f
3:24 6
mph
1021.8mb 71f 64f
3:18 6
mph
1021.8mb 71f 64f
3:12 3 5 mph 1021.9mb 71f 64f
3:06 3 5 mph 1021.9mb 71f 64f
3:00 3
mph
1021.9mb 71f 64f
2:54 3 5 mph 1021.9mb 71f 64f
2:48 3 5 mph 1021.9mb 71f 64f
2:42 3 5 mph 1021.9mb 71f 64f
2:36 5 6 mph 1021.8mb 71f 64f
2:30 3 5 mph 1021.8mb 71f 64f
2:24 3 5 mph 1021.8mb 71f 65f
2:18  -  mph 1021.8mb 71f 64f
2:12  -  mph 1021.7mb 71f 65f
2:06  -  mph 1021.8mb 71f 65f
2:00 5
mph
1021.8mb 71f 65f
1:54 2 3 mph 1021.7mb 71f 65f
1:48  -  mph 1021.7mb 71f 64f
1:42  -  mph 1021.7mb 71f 64f
1:36  -  mph 1021.7mb 71f 65f
1:30  -  2 mph 1021.8mb 71f 64f
1:24 1 3 mph 1021.7mb 71f 64f
1:18 2 3 mph 1021.6mb 71f 64f
1:12 2 3 mph 1021.6mb 71f 64f
1:06 2 3 mph 1021.6mb 71f 64f
1:00 3 5 mph 1021.6mb 71f 65f
12:54 3 5 mph 1021.6mb 70f 64f
12:48 5 6 mph 1021.7mb 70f 65f
12:42 5 6 mph 1021.6mb 70f 65f
12:36 5 6 mph 1021.6mb 70f 65f
12:30 6 7 mph 1021.6mb 70f 65f
12:24 6 7 mph 1021.5mb 70f 65f
12:18 7 8 mph 1021.5mb 70f 65f
12:12 7
mph
1021.5mb 70f 66f
12:06 6 8 mph 1021.4mb 70f 67f
12:00 7 8 mph 1021.4mb 70f 67f
vie 06/24 11:54 7
mph
1021.4mb 69f 67f
11:48  -  mph 1021.3mb 69f -
11:42  -  mph 1021.3mb 69f -
11:36  -  mph 1021.3mb 69f -
11:30 8 9 mph 1021.4mb 69f 67f
11:24 8 9 mph 1021.4mb 69f 67f
11:18 8 9 mph 1021.3mb 69f 67f
11:12 7 8 mph 1021.4mb 69f 68f
11:06 6 8 mph 1021.4mb 69f 67f
11:00  -  mph 1021.4mb 69f -
10:54  -  mph 1021.5mb 69f -
10:48  -  mph - 68f -
10:42  -  mph - 67f -
10:36  -  mph - 67f -
10:30  -  mph 1021.5mb 66f -
10:24  -  mph 1021.5mb 66f -
10:18  -  mph - 66f 68f
10:12  -  mph - 67f 68f
10:06  -  mph - 67f 68f
10:00 7 8 mph - 67f -
9:54 6 8 mph - 67f -
9:48  -  mph 1021.3mb 67f -
9:42  -  mph 1021.3mb 67f -
9:36  -  mph 1021.2mb 67f -
9:30  -  mph 1021.2mb 67f 69f
9:24  -  mph 1021.1mb 68f 69f
9:18  -  mph 1021mb 68f 69f
9:12  -  mph 1021mb 68f 69f
9:06  -  mph 1020.9mb 69f 69f
9:00  -  mph 1020.9mb 69f 70f
8:54  -  mph 1020.8mb 70f 70f
8:48  -  mph 1020.8mb 70f 70f
8:42  -  mph 1020.7mb 70f 70f
8:36  -  mph 1020.6mb 70f 70f
8:30  -  mph - 70f -
8:24  -  mph - 70f -
8:18  -  mph 1020.5mb 71f 71f
8:12  -  mph 1020.5mb 71f 71f
8:06  -  mph 1020.6mb 71f 71f
8:00  -  mph - 71f -
7:54  -  mph - 71f -
7:48  -  mph 1020.5mb 72f -
7:42  -  mph 1020.5mb 72f -
7:36  -  mph 1020.5mb 72f -
7:30  -  mph 1020.5mb 72f -
7:24  -  mph 1020.5mb 72f -
7:18  -  mph - 72f 73f
7:12  -  mph - 72f 73f
7:06  -  mph - 72f 73f
7:00  -  mph 1020.4mb 72f -
6:54  -  mph 1020.4mb 72f -
6:48  -  mph - 72f -
6:42  -  mph - 72f -
6:36  -  mph - 72f -
6:30  -  mph 1020.1mb 72f -
6:24  -  mph 1020.1mb 72f -
6:18  -  mph 1020mb 72f 73f
6:12  -  mph 1019.9mb 72f 73f
6:06  -  mph 1019.8mb 71f 73f
6:00  -  mph 1019.8mb 70f 74f
5:54  -  mph 1019.8mb 70f 74f
5:48  -  mph - 70f -
5:42  -  mph - 71f -
5:36  -  mph - 71f -
5:30 15 18 mph 1019.9mb 71f 74f
5:24 16 18 mph 1019.8mb 72f 74f
5:18 16 20 mph 1019.7mb 72f 74f
5:12 18 20 mph 1019.6mb 72f 74f
5:06 17 21 mph 1019.5mb 72f 74f
5:00 20 22 mph 1019.4mb 72f 74f
4:54 18 22 mph 1019.4mb 72f 74f
4:48 17 20 mph 1019.3mb 72f 74f
4:42 17 22 mph 1019.4mb 73f 74f
4:36 21 25 mph 1019.2mb 73f 74f
4:30 21 23 mph 1019.2mb 73f 74f
4:24 23 25 mph 1019.1mb 73f 74f
4:18 22 25 mph 1019.1mb 73f 74f
4:12 22 24 mph 1019.1mb 73f 74f
4:06 23 26 mph 1019.1mb 73f 74f
4:00 18 25 mph 1019.1mb 73f 74f
3:54 22 24 mph 1019mb 73f 74f
3:48 5
mph
1019.2mb 73f 77f
3:42 3 5 mph 1019.2mb 73f 77f
3:36 3 5 mph 1019.2mb 73f 78f
3:30 5
mph
1019.2mb 73f -
3:24 3
mph
1019.2mb 73f -
3:18 3
mph
1019.1mb 73f 77f
3:12 3 6 mph 1019.1mb 73f 77f
3:06 6 8 mph 1019.1mb 73f 77f
3:00 7 8 mph 1019.1mb 73f 77f
2:54 6 8 mph 1019.2mb 72f 76f
2:48 7 11 mph 1019.1mb 71f 77f
2:42 8 9 mph 1019.1mb 71f 77f
2:36 7 8 mph 1019.1mb 71f 76f
2:30 7 8 mph 1019.1mb 71f 76f
2:24 6 7 mph 1019.1mb 71f 76f
2:18 7
mph
1019.2mb 71f 75f
2:12 7 9 mph 1019.2mb 71f 76f
2:06 8 10 mph 1019.2mb 71f 76f
2:00 8 9 mph 1019.2mb 71f 76f
1:54 6 7 mph 1019.2mb 71f 76f
1:48 6 7 mph 1019.1mb 71f 76f
1:42 7 8 mph 1019.1mb 71f 76f
1:36 6 8 mph 1019.1mb 71f 76f
1:30 6 7 mph 1019.1mb 71f 76f
1:24 7 9 mph 1019.1mb 71f 76f
1:18 6 8 mph 1019.1mb 71f 76f
1:12 5
mph
1019.2mb 71f 75f
1:06 5 6 mph 1019.2mb 71f 75f
1:00 6
mph
1019.2mb 71f 76f
12:54  -  2 mph 1019.2mb 71f 77f
12:48 3 6 mph 1019.2mb 71f 78f
12:42 3 7 mph 1019.2mb 71f 77f
12:36 8 11 mph 1019.2mb 71f 77f
12:30 1 7 mph 1019.2mb 71f 77f
12:24 8 14 mph 1019.1mb 71f 76f
12:18 5 6 mph 1019.1mb 71f 76f
12:12 7 10 mph 1019.1mb 71f 76f
12:06 7 10 mph 1019.1mb 71f 76f
12:00 5 9 mph 1019.1mb 71f 76f
11:54 7 10 mph 1019.1mb 70f 76f
11:48 7 9 mph 1019.1mb 70f 76f
11:42 2 6 mph 1019.1mb 70f 76f
11:36 6 10 mph 1019.1mb 70f 75f
11:30 8 14 mph 1019mb 70f 75f
11:24 5 11 mph 1019mb 70f 75f
11:18 9 14 mph 1018.9mb 70f 75f
11:12 9 17 mph 1019mb 70f 74f
11:06 9 13 mph 1018.9mb 70f 74f
11:00 9 14 mph 1018.9mb 70f 74f
10:54 10 13 mph 1018.9mb 70f 74f
10:48 14 15 mph 1018.8mb 70f 73f
10:42 11 14 mph 1018.8mb 70f 73f
10:36 9 13 mph 1018.8mb 70f 73f
10:30 8 14 mph 1018.7mb 70f 73f
10:24 10 14 mph 1018.7mb 70f 73f
10:18 10 14 mph 1018.7mb 70f 73f
10:12 11 14 mph 1018.6mb 70f 73f
10:06 8 10 mph 1018.7mb 70f 72f
10:00 8 13 mph 1018.6mb 70f 72f
9:54 13 15 mph 1018.6mb 70f 72f
9:48 9 14 mph 1018.6mb 70f 72f
9:42 10 14 mph 1018.5mb 70f 72f
9:36 7 10 mph 1018.5mb 70f 72f
9:30 8 10 mph 1018.4mb 70f 71f
9:24 8 14 mph 1018.3mb 70f 71f
9:18 6 8 mph 1018.3mb 70f 71f
9:12 6 10 mph 1018.3mb 70f 70f
9:06 9 11 mph 1018.2mb 70f 70f
9:00 9 14 mph 1018.2mb 70f 69f
8:54 7 9 mph 1018.2mb 70f 69f
8:48 7 10 mph 1018mb 70f 69f
8:42 9 11 mph 1018mb 70f 68f
8:36 10 14 mph 1017.9mb 70f 68f
8:30 9 14 mph 1017.9mb 70f 68f
8:24 8 13 mph 1017.8mb 70f 67f
8:18 10 13 mph 1017.7mb 71f 67f
8:12 9 13 mph 1017.6mb 71f 67f
8:06 9 14 mph 1017.6mb 71f 67f
8:00 10 14 mph 1017.5mb 71f 66f
7:54 10 13 mph 1017.4mb 71f 66f
7:48 10 13 mph 1017.2mb 71f 66f
7:42 10 13 mph 1017.1mb 71f 65f
7:36 9 13 mph 1017.1mb 71f 65f
7:30 9 11 mph 1017mb 71f 65f
7:24 9 13 mph 1017mb 71f 65f
7:18 10 11 mph 1016.9mb 71f 64f
7:12 10 11 mph 1016.8mb 70f 64f
7:06 10 11 mph 1016.8mb 70f 64f
7:00 10 13 mph 1016.7mb 70f 64f
6:54 8 10 mph 1016.7mb 70f 64f
6:48 8 10 mph 1016.6mb 70f 63f
6:42 7 8 mph 1016.6mb 70f 63f
6:36 7 8 mph 1016.6mb 70f 63f
6:30 6 8 mph 1016.5mb 70f 63f
6:24 6 7 mph 1016.5mb 70f 63f
6:18 3 6 mph 1016.3mb 70f 63f
6:12 5 6 mph 1016.3mb 70f 63f
6:06 5 7 mph 1016.2mb 70f 63f
6:00 5 7 mph 1016.1mb 70f 63f
5:54 5 6 mph 1016.1mb 70f 63f
5:48 5 6 mph 1016mb 70f 63f
5:42 6 8 mph 1015.8mb 70f 63f
5:36 5 7 mph 1015.7mb 70f 63f
5:30 6 7 mph 1015.6mb 70f 63f
5:24 6 7 mph 1015.5mb 70f 63f
5:18 5 6 mph 1015.4mb 70f 63f
5:12 3 5 mph 1015.3mb 71f 63f
5:06 3 5 mph 1015.2mb 71f 63f
5:00 3 5 mph 1015.1mb 71f 63f
4:54 3 5 mph 1015mb 71f 63f
4:48 2 3 mph 1014.9mb 71f 63f
4:42 2 5 mph 1014.8mb 71f 63f
4:36 5 6 mph 1014.7mb 71f 64f
4:30 6 7 mph 1014.5mb 71f 64f
4:24 7 8 mph 1014.4mb 71f 64f
4:18 7 9 mph 1014.3mb 71f 64f
4:12 8 10 mph 1014.3mb 71f 64f
4:06 9 10 mph 1014.1mb 71f 64f
4:00 9 10 mph 1014.1mb 71f 64f
3:54 10 11 mph 1014.1mb 71f 64f
3:48 9 11 mph 1014.1mb 71f 65f
3:42 8 9 mph 1014mb 71f 65f
3:36 8 10 mph 1014mb 71f 65f
3:30 8 10 mph 1013.8mb 70f 65f
3:24 9 10 mph 1013.7mb 70f 65f
3:18 8
mph
1013.6mb 70f 65f
3:12 7 8 mph 1013.5mb 70f 65f
3:06 7 8 mph 1013.5mb 70f 66f
3:00 6 9 mph 1013.3mb 70f 66f
2:54 8 9 mph 1013.3mb 70f 66f
2:48 8 9 mph 1013.3mb 70f 66f
2:42 8 9 mph 1013.3mb 70f 66f
2:36 9 10 mph 1013.2mb 70f 66f
2:30 9 10 mph 1013.2mb 70f 67f
2:24 7 8 mph 1013.2mb 70f 67f
2:18  -  mph 1013.1mb 70f 67f
2:12  -  mph 1013.1mb 70f 67f
2:06  -  mph 1013.1mb 70f 67f
2:00  -  mph 1013.1mb 70f 67f
1:54  -  mph 1013.1mb 70f 67f
1:48  -  mph 1013mb 70f 67f
1:42  -  mph 1012.9mb 70f 67f
1:36  -  mph 1013mb 70f 68f
1:30 3 5 mph 1013mb 70f 68f
1:24 5 6 mph 1012.9mb 70f 68f
1:18 5 7 mph 1012.9mb 70f 68f
1:12 6
mph
1012.8mb 70f 68f
1:06 6
mph
1012.8mb 70f 68f
1:00 5 6 mph 1012.8mb 70f 68f
12:54 5 6 mph 1012.8mb 70f 68f
12:48 5 6 mph 1012.8mb 70f 67f
12:42 5
mph
1012.8mb 70f 67f
12:36 5 6 mph 1012.8mb 70f 67f
12:30 6
mph
1012.7mb 70f 68f
12:24 6
mph
1012.6mb 70f 68f
12:18 6 7 mph 1012.7mb 70f 68f
12:12 7
mph
1012.6mb 70f 68f
12:06 6 7 mph 1012.5mb 70f 68f
12:00 5 6 mph 1012.6mb 70f 68f
jue 06/23 11:54 6
mph
1012.6mb 70f 68f
11:48  -  mph 1012.7mb 70f -
11:42  -  mph 1012.7mb 70f -
11:36  -  mph 1012.6mb 70f -
11:30 7 8 mph 1012.7mb 70f 68f
11:24 6 8 mph 1012.7mb 70f 69f
11:18 7 8 mph 1012.8mb 70f 69f
11:12 7 8 mph 1012.7mb 70f 69f
11:06 5 6 mph 1012.7mb 70f 68f
11:00  -  mph 1012.7mb - -
10:54  -  mph 1012.5mb - -
10:48  -  mph 1012.5mb 70f -
10:42  -  mph 1012.3mb 69f -
10:36  -  mph 1012.2mb 69f -
10:30  -  mph 1012.2mb - -
10:24  -  mph 1012.1mb - -
10:18 10
mph
1012.1mb 68f -
10:12 10
mph
1012mb 68f -
10:06 9
mph
1012mb 68f -
10:00  -  mph - 68f -
9:54  -  mph - 68f -
9:48  -  mph - 68f -
9:42  -  mph - 68f -
9:36  -  mph - 68f -
9:30  -  mph 1011.5mb 68f -
9:24  -  mph 1011.5mb 68f -
9:18  -  mph - 68f 69f
9:12  -  mph - 68f 69f
9:06  -  mph - 68f 69f
9:00  -  mph 1011.2mb 68f -
8:54  -  mph 1011.1mb 68f -
8:48  -  mph 1011mb 68f -
8:42  -  mph 1010.9mb 68f -
8:36  -  mph 1010.9mb 68f -
8:30  -  mph 1010.9mb 68f -
8:24  -  mph 1010.7mb 69f -
8:18  -  mph 1010.7mb 69f 70f
8:12  -  mph 1010.8mb 69f 71f
8:06  -  mph 1010.8mb 69f 71f
8:00  -  mph 1010.7mb - -
7:54  -  mph 1010.6mb - -
7:48  -  mph 1010.6mb - -
7:42  -  mph 1010.6mb - -
7:36  -  mph 1010.6mb - -
7:30  -  mph 1010.5mb 70f -
7:24  -  mph 1010.5mb 70f -
7:18  -  mph - 70f -
7:12  -  mph - 70f -
7:06  -  mph - 70f -
7:00  -  mph - 70f -
6:54  -  mph - 70f -